createdAt,value
2023-04-10T00:00:23.786Z,15.52
2023-04-10T00:02:50.703Z,15.05
2023-04-10T00:05:17.817Z,13.52
2023-04-10T00:07:44.478Z,13.68
2023-04-10T00:10:11.315Z,14.30
2023-04-10T00:12:38.110Z,15.00
2023-04-10T00:15:05.476Z,14.25
2023-04-10T00:17:32.139Z,14.52
2023-04-10T00:19:59.576Z,16.92
2023-04-10T00:22:26.636Z,14.40
2023-04-10T00:24:53.815Z,13.43
2023-04-10T00:27:20.601Z,15.65
2023-04-10T00:29:47.460Z,13.50
2023-04-10T00:32:14.174Z,14.55
2023-04-10T00:34:40.898Z,14.95
2023-04-10T00:37:08.040Z,13.93
2023-04-10T00:39:34.781Z,13.63
2023-04-10T00:42:02.461Z,12.35
2023-04-10T00:44:29.199Z,15.23
2023-04-10T00:46:56.034Z,15.30
2023-04-10T00:49:22.838Z,15.63
2023-04-10T00:51:49.811Z,13.20
2023-04-10T00:54:16.914Z,15.00
2023-04-10T00:56:43.952Z,15.80
2023-04-10T00:59:10.636Z,15.00
2023-04-10T01:01:37.382Z,14.13
2023-04-10T01:04:04.218Z,13.30
2023-04-10T01:06:54.527Z,14.07
2023-04-10T01:09:52.862Z,13.27
2023-04-10T01:12:42.949Z,14.65
2023-04-10T01:15:10.763Z,13.65
2023-04-10T01:17:57.636Z,16.10
2023-04-10T01:20:26.318Z,15.98
2023-04-10T01:23:30.900Z,14.75
2023-04-10T01:26:01.436Z,14.20
2023-04-10T01:28:49.923Z,15.52
2023-04-10T01:31:21.049Z,14.38
2023-04-10T01:33:51.139Z,14.32
2023-04-10T01:36:28.467Z,14.60
2023-04-10T01:38:55.344Z,14.05
2023-04-10T01:41:22.654Z,17.67
2023-04-10T01:43:50.650Z,16.20
2023-04-10T01:46:19.558Z,14.13
2023-04-10T01:48:46.728Z,14.50
2023-04-10T01:51:14.263Z,13.57
2023-04-10T01:53:41.223Z,14.43
2023-04-10T01:56:08.876Z,16.35
2023-04-10T01:58:36.067Z,15.57
2023-04-10T02:01:02.782Z,17.13
2023-04-10T02:03:29.667Z,15.48
2023-04-10T02:06:15.818Z,15.27
2023-04-10T02:09:19.623Z,14.82
2023-04-10T02:14:25.980Z,14.88
2023-04-10T02:16:54.411Z,14.98
2023-04-10T02:19:21.307Z,14.80
2023-04-10T02:21:47.978Z,14.18
2023-04-10T02:24:14.709Z,21.98
2023-04-10T02:26:48.481Z,15.15
2023-04-10T02:29:15.384Z,15.90
2023-04-10T02:31:42.406Z,16.35
2023-04-10T02:34:09.354Z,14.80
2023-04-10T02:36:37.670Z,17.13
2023-04-10T02:39:05.436Z,15.90
2023-04-10T02:41:32.147Z,15.93
2023-04-10T02:43:58.889Z,15.77
2023-04-10T02:46:25.848Z,13.55
2023-04-10T02:48:53.234Z,14.93
2023-04-10T02:51:19.926Z,16.45
2023-04-10T02:53:47.643Z,14.90
2023-04-10T02:56:14.296Z,15.73
2023-04-10T02:58:45.526Z,13.88
2023-04-10T03:01:12.701Z,15.20
2023-04-10T03:03:39.827Z,14.73
2023-04-10T03:06:08.981Z,15.90
2023-04-10T03:08:35.771Z,14.50
2023-04-10T03:11:02.553Z,14.10
2023-04-10T03:13:29.237Z,13.73
2023-04-10T03:15:55.997Z,13.35
2023-04-10T03:18:22.766Z,13.70
2023-04-10T03:20:49.592Z,13.15
2023-04-10T03:23:16.580Z,15.27
2023-04-10T03:25:43.502Z,13.07
2023-04-10T03:28:10.392Z,11.55
2023-04-10T03:30:37.409Z,12.68
2023-04-10T03:33:04.149Z,13.75
2023-04-10T03:35:31.193Z,14.05
2023-04-10T03:37:57.876Z,14.73
2023-04-10T03:40:24.569Z,12.95
2023-04-10T03:42:51.268Z,12.38
2023-04-10T03:45:17.997Z,12.38
2023-04-10T03:47:44.790Z,15.63
2023-04-10T03:50:11.537Z,15.43
2023-04-10T03:52:38.584Z,13.30
2023-04-10T03:55:05.835Z,14.68
2023-04-10T03:57:32.606Z,13.65
2023-04-10T03:59:59.375Z,13.35
2023-04-10T04:02:26.157Z,14.70
2023-04-10T04:04:53.275Z,15.13
2023-04-10T04:07:19.941Z,15.57
2023-04-10T04:09:46.701Z,13.18
2023-04-10T04:12:13.341Z,13.65
2023-04-10T04:14:40.059Z,13.40
2023-04-10T04:17:06.701Z,14.13
2023-04-10T04:19:33.628Z,13.80
2023-04-10T04:22:00.591Z,14.38
2023-04-10T04:24:27.524Z,13.65
2023-04-10T04:26:54.236Z,13.73
2023-04-10T04:29:21.055Z,13.35
2023-04-10T04:31:47.879Z,12.55
2023-04-10T04:34:14.616Z,13.20
2023-04-10T04:36:41.262Z,11.68
2023-04-10T04:39:07.967Z,12.80
2023-04-10T04:41:34.667Z,13.27
2023-04-10T04:44:02.126Z,11.68
2023-04-10T04:46:28.976Z,14.10
2023-04-10T04:48:55.872Z,12.90
2023-04-10T04:51:22.568Z,11.95
2023-04-10T04:53:49.532Z,12.43
2023-04-10T04:56:16.356Z,13.23
2023-04-10T04:58:43.110Z,14.93
2023-04-10T05:01:09.796Z,14.05
2023-04-10T05:03:36.767Z,14.15
2023-04-10T05:06:03.668Z,12.70
2023-04-10T05:08:30.347Z,12.77
2023-04-10T05:10:56.967Z,12.15
2023-04-10T05:13:23.641Z,14.80
2023-04-10T05:15:50.799Z,12.07
2023-04-10T05:18:20.006Z,14.98
2023-04-10T05:20:47.671Z,13.00
2023-04-10T05:23:14.473Z,15.00
2023-04-10T05:25:41.648Z,13.35
2023-04-10T05:28:08.389Z,13.00
2023-04-10T05:30:35.058Z,13.25
2023-04-10T05:33:01.901Z,12.70
2023-04-10T05:35:28.659Z,13.77
2023-04-10T05:37:55.363Z,13.35
2023-04-10T05:40:22.111Z,11.70
2023-04-10T05:42:48.796Z,12.60
2023-04-10T05:45:15.577Z,12.52
2023-04-10T05:47:42.401Z,12.75
2023-04-10T05:50:09.583Z,12.07
2023-04-10T05:52:36.351Z,11.77
2023-04-10T05:55:03.553Z,12.85
2023-04-10T05:57:30.593Z,13.02
2023-04-10T05:59:57.311Z,11.90
2023-04-10T06:02:24.762Z,11.60
2023-04-10T06:04:51.779Z,11.88
2023-04-10T06:07:18.537Z,11.75
2023-04-10T06:09:45.394Z,13.43
2023-04-10T06:12:12.074Z,11.98
2023-04-10T06:14:38.750Z,11.30
2023-04-10T06:17:05.412Z,13.25
2023-04-10T06:19:32.115Z,11.07
2023-04-10T06:21:58.772Z,12.07
2023-04-10T06:24:25.527Z,11.95
2023-04-10T06:26:52.201Z,10.38
2023-04-10T06:29:18.848Z,11.35
2023-04-10T06:31:45.735Z,10.68
2023-04-10T06:34:12.504Z,12.70
2023-04-10T06:36:39.165Z,11.25
2023-04-10T06:39:06.754Z,11.65
2023-04-10T06:41:33.488Z,13.35
2023-04-10T06:44:02.496Z,10.77
2023-04-10T06:46:30.159Z,8.98
2023-04-10T06:48:57.070Z,8.52
2023-04-10T06:51:23.805Z,11.85
2023-04-10T06:53:50.522Z,9.52
2023-04-10T06:56:17.158Z,10.55
2023-04-10T06:58:43.846Z,8.52
2023-04-10T07:01:10.601Z,8.27
2023-04-10T07:03:37.427Z,9.30
2023-04-10T07:06:04.466Z,8.60
2023-04-10T07:08:31.439Z,9.38
2023-04-10T07:10:58.734Z,8.05
2023-04-10T07:13:25.870Z,9.15
2023-04-10T07:15:52.710Z,8.68
2023-04-10T07:18:19.529Z,8.68
2023-04-10T07:20:46.982Z,6.60
2023-04-10T07:23:13.679Z,8.68
2023-04-10T07:25:42.282Z,7.25
2023-04-10T07:28:08.981Z,7.07
2023-04-10T07:30:35.730Z,8.48
2023-04-10T07:33:02.502Z,6.90
2023-04-10T07:35:29.392Z,7.88
2023-04-10T07:37:56.305Z,7.20
2023-04-10T07:40:23.137Z,7.57
2023-04-10T07:42:52.033Z,6.90
2023-04-10T07:45:20.549Z,5.93
2023-04-10T07:47:47.298Z,6.13
2023-04-10T07:50:14.027Z,6.10
2023-04-10T07:52:40.788Z,8.43
2023-04-10T07:55:07.770Z,8.23
2023-04-10T07:57:34.467Z,6.22
2023-04-10T08:00:01.357Z,5.95
2023-04-10T08:02:28.181Z,6.85
2023-04-10T08:04:55.127Z,7.13
2023-04-10T08:07:22.724Z,5.95
2023-04-10T08:09:49.396Z,6.07
2023-04-10T08:12:16.518Z,4.90
2023-04-10T08:14:45.035Z,5.03
2023-04-10T08:17:14.937Z,5.68
2023-04-10T08:19:43.374Z,5.40
2023-04-10T08:22:10.429Z,7.78
2023-04-10T08:24:37.131Z,5.13
2023-04-10T08:27:03.933Z,4.40
2023-04-10T08:29:30.955Z,4.45
2023-04-10T08:32:00.711Z,5.10
2023-04-10T08:34:27.931Z,5.43
2023-04-10T08:36:54.920Z,4.78
2023-04-10T08:39:21.746Z,4.05
2023-04-10T08:41:48.480Z,3.95
2023-04-10T08:44:15.130Z,3.90
2023-04-10T08:46:43.912Z,4.15
2023-04-10T08:49:13.839Z,4.75
2023-04-10T08:51:49.161Z,4.28
2023-04-10T08:54:20.985Z,4.10
2023-04-10T08:56:51.251Z,4.40
2023-04-10T08:59:17.967Z,4.40
2023-04-10T09:01:44.734Z,3.78
2023-04-10T09:04:12.688Z,4.60
2023-04-10T09:06:39.910Z,3.65
2023-04-10T09:09:07.234Z,4.07
2023-04-10T09:11:52.222Z,4.25
2023-04-10T09:14:30.075Z,4.38
2023-04-10T09:17:18.676Z,4.30
2023-04-10T09:19:46.799Z,4.55
2023-04-10T09:22:13.794Z,3.53
2023-04-10T09:24:42.261Z,3.80
2023-04-10T09:27:09.476Z,3.33
2023-04-10T09:29:48.551Z,3.53
2023-04-10T09:32:37.840Z,3.58
2023-04-10T09:35:05.978Z,3.20
2023-04-10T09:37:33.500Z,3.75
2023-04-10T09:40:00.810Z,3.08
2023-04-10T09:42:37.760Z,3.75
2023-04-10T09:45:05.166Z,3.63
2023-04-10T09:47:33.121Z,2.85
2023-04-10T09:50:00.994Z,3.38
2023-04-10T09:52:28.480Z,3.45
2023-04-10T09:54:59.672Z,3.38
2023-04-10T09:57:27.740Z,3.08
2023-04-10T09:59:58.764Z,2.63
2023-04-10T10:02:26.586Z,4.93
2023-04-10T10:04:53.438Z,3.53
2023-04-10T10:07:22.079Z,3.78
2023-04-10T10:09:50.485Z,2.58
2023-04-10T10:12:38.082Z,2.95
2023-04-10T10:15:13.827Z,2.65
2023-04-10T10:18:10.495Z,2.42
2023-04-10T10:20:37.322Z,2.10
2023-04-10T10:23:04.378Z,2.95
2023-04-10T10:25:31.683Z,3.15
2023-04-10T10:28:00.443Z,2.58
2023-04-10T10:30:30.386Z,2.83
2023-04-10T10:32:58.887Z,2.22
2023-04-10T10:35:29.281Z,2.33
2023-04-10T10:38:13.815Z,2.42
2023-04-10T10:40:52.272Z,2.05
2023-04-10T10:43:38.417Z,2.10
2023-04-10T10:46:09.673Z,1.88
2023-04-10T10:48:36.510Z,3.35
2023-04-10T10:51:04.392Z,1.90
2023-04-10T10:53:42.891Z,2.00
2023-04-10T10:56:18.964Z,1.73
2023-04-10T10:58:50.828Z,1.50
2023-04-10T11:01:18.476Z,2.33
2023-04-10T11:03:45.760Z,1.50
2023-04-10T11:06:19.584Z,1.95
2023-04-10T11:08:53.020Z,2.17
2023-04-10T11:11:24.750Z,3.20
2023-04-10T11:13:57.369Z,2.00
2023-04-10T11:16:24.813Z,2.08
2023-04-10T11:19:02.812Z,2.30
2023-04-10T11:21:37.400Z,1.98
2023-04-10T11:24:05.380Z,2.40
2023-04-10T11:26:35.192Z,1.42
2023-04-10T11:29:04.820Z,2.38
2023-04-10T11:31:32.249Z,2.13
2023-04-10T11:34:10.720Z,1.70
2023-04-10T11:36:42.438Z,1.70
2023-04-10T11:39:10.399Z,1.95
2023-04-10T11:41:39.309Z,2.55
2023-04-10T11:44:07.307Z,1.50
2023-04-10T11:46:38.259Z,1.77
2023-04-10T11:49:05.993Z,1.50
2023-04-10T11:51:33.078Z,1.58
2023-04-10T11:54:10.710Z,1.23
2023-04-10T11:56:39.510Z,1.60
2023-04-10T11:59:13.661Z,1.67
2023-04-10T12:01:43.030Z,1.52
2023-04-10T12:04:21.068Z,1.98
2023-04-10T12:06:49.217Z,1.27
2023-04-10T12:09:17.574Z,1.90
2023-04-10T12:12:01.621Z,1.30
2023-04-10T12:14:40.773Z,1.38
2023-04-10T12:17:09.137Z,2.67
2023-04-10T12:19:38.039Z,1.30
2023-04-10T12:22:04.883Z,1.52
2023-04-10T12:24:51.445Z,1.10
2023-04-10T12:27:28.722Z,1.10
2023-04-10T12:29:57.526Z,0.90
2023-04-10T12:32:24.906Z,1.00
2023-04-10T12:35:01.359Z,0.98
2023-04-10T12:37:50.875Z,0.85
2023-04-10T12:40:18.118Z,0.90
2023-04-10T12:42:44.885Z,0.60
2023-04-10T12:45:13.965Z,0.80
2023-04-10T12:47:48.953Z,0.60
2023-04-10T12:50:17.085Z,0.85
2023-04-10T12:53:01.390Z,0.57
2023-04-10T12:55:29.101Z,1.70
2023-04-10T12:57:57.022Z,0.73
2023-04-10T13:00:24.329Z,1.00
2023-04-10T13:02:51.171Z,0.82
2023-04-10T13:05:18.174Z,0.75
2023-04-10T13:07:44.937Z,0.60
2023-04-10T13:10:11.650Z,0.70
2023-04-10T13:12:39.219Z,1.02
2023-04-10T13:15:07.889Z,0.98
2023-04-10T13:17:34.863Z,0.68
2023-04-10T13:20:01.786Z,0.93
2023-04-10T13:22:28.512Z,2.10
2023-04-10T13:24:55.213Z,1.27
2023-04-10T13:27:21.934Z,1.42
2023-04-10T13:29:48.592Z,1.30
2023-04-10T13:32:15.733Z,0.82
2023-04-10T13:34:42.517Z,0.88
2023-04-10T13:37:13.269Z,1.00
2023-04-10T13:39:40.073Z,1.05
2023-04-10T13:42:06.787Z,1.10
2023-04-10T13:44:33.509Z,0.80
2023-04-10T13:47:00.244Z,1.00
2023-04-10T13:49:30.381Z,1.20
2023-04-10T13:51:57.686Z,1.40
2023-04-10T13:54:24.480Z,1.38
2023-04-10T13:56:51.272Z,1.10
2023-04-10T13:59:18.034Z,1.02
2023-04-10T14:01:44.772Z,1.30
2023-04-10T14:04:11.489Z,1.05
2023-04-10T14:06:38.286Z,1.00
2023-04-10T14:09:05.055Z,1.10
2023-04-10T14:11:31.707Z,1.20
2023-04-10T14:13:58.597Z,1.20
2023-04-10T14:16:25.573Z,1.30
2023-04-10T14:18:52.469Z,1.30
2023-04-10T14:21:20.680Z,1.10
2023-04-10T14:23:48.039Z,1.17
2023-04-10T14:26:14.704Z,1.20
2023-04-10T14:28:41.353Z,1.33
2023-04-10T14:31:08.198Z,1.10
2023-04-10T14:33:35.448Z,1.00
2023-04-10T14:36:02.250Z,1.35
2023-04-10T14:38:28.952Z,1.30
2023-04-10T14:40:55.797Z,1.15
2023-04-10T14:43:22.509Z,1.08
2023-04-10T14:45:49.249Z,1.15
2023-04-10T14:48:16.128Z,1.55
2023-04-10T14:50:42.944Z,1.15
2023-04-10T14:53:10.117Z,1.10
2023-04-10T14:55:37.325Z,0.82
2023-04-10T14:58:04.631Z,1.08
2023-04-10T15:00:32.144Z,0.90
2023-04-10T15:02:59.035Z,0.93
2023-04-10T15:05:26.364Z,1.33
2023-04-10T15:07:53.284Z,1.17
2023-04-10T15:10:20.432Z,1.20
2023-04-10T15:12:47.146Z,1.02
2023-04-10T15:15:13.923Z,0.93
2023-04-10T15:17:41.365Z,1.13
2023-04-10T15:20:08.523Z,1.58
2023-04-10T15:22:35.945Z,1.35
2023-04-10T15:25:02.989Z,1.17
2023-04-10T15:27:29.692Z,0.80
2023-04-10T15:29:57.646Z,1.20
2023-04-10T15:32:24.456Z,1.42
2023-04-10T15:34:51.266Z,1.17
2023-04-10T15:37:17.973Z,1.58
2023-04-10T15:39:44.688Z,2.15
2023-04-10T15:42:11.370Z,0.85
2023-04-10T15:44:38.073Z,1.38
2023-04-10T15:47:04.838Z,0.98
2023-04-10T15:49:37.828Z,1.27
2023-04-10T15:52:06.722Z,2.03
2023-04-10T15:54:35.009Z,1.23
2023-04-10T15:57:02.333Z,1.92
2023-04-10T15:59:29.424Z,1.35
2023-04-10T16:01:56.359Z,1.15
2023-04-10T16:04:23.539Z,1.42
2023-04-10T16:06:50.647Z,1.83
2023-04-10T16:11:47.923Z,1.38
2023-04-10T16:14:14.666Z,1.70
2023-04-10T16:16:41.479Z,2.47
2023-04-10T16:19:08.268Z,1.55
2023-04-10T16:21:34.918Z,1.17
2023-04-10T16:24:01.754Z,1.90
2023-04-10T16:26:28.594Z,1.75
2023-04-10T16:28:55.481Z,1.50
2023-04-10T16:31:22.472Z,1.98
2023-04-10T16:33:49.199Z,1.42
2023-04-10T16:36:15.859Z,2.03
2023-04-10T16:38:42.625Z,1.55
2023-04-10T16:41:10.144Z,1.73
2023-04-10T16:43:36.886Z,1.98
2023-04-10T16:46:03.832Z,1.60
2023-04-10T16:48:30.593Z,1.27
2023-04-10T16:51:04.745Z,1.65
2023-04-10T16:53:32.543Z,1.30
2023-04-10T16:56:01.050Z,1.52
2023-04-10T16:58:30.422Z,1.33
2023-04-10T17:00:57.192Z,1.30
2023-04-10T17:03:23.976Z,1.30
2023-04-10T17:05:51.369Z,1.80
2023-04-10T17:08:18.012Z,1.25
2023-04-10T17:10:44.730Z,1.50
2023-04-10T17:13:11.413Z,1.83
2023-04-10T17:15:38.174Z,1.58
2023-04-10T17:18:04.849Z,1.30
2023-04-10T17:20:35.796Z,1.35
2023-04-10T17:23:02.498Z,1.25
2023-04-10T17:25:29.288Z,1.42
2023-04-10T17:27:57.165Z,2.03
2023-04-10T17:30:23.965Z,1.50
2023-04-10T17:32:50.779Z,2.65
2023-04-10T17:35:17.550Z,1.40
2023-04-10T17:37:44.208Z,1.38
2023-04-10T17:40:11.421Z,1.52
2023-04-10T17:42:38.120Z,2.25
2023-04-10T17:45:05.362Z,2.30
2023-04-10T17:47:32.149Z,1.83
2023-04-10T17:49:58.869Z,2.08
2023-04-10T17:52:25.676Z,1.75
2023-04-10T17:54:52.401Z,1.52
2023-04-10T17:57:19.148Z,1.85
2023-04-10T17:59:45.908Z,2.83
2023-04-10T18:02:12.697Z,1.48
2023-04-10T18:04:39.439Z,1.38
2023-04-10T18:07:06.633Z,1.45
2023-04-10T18:09:33.418Z,1.10
2023-04-10T18:12:00.107Z,1.23
2023-04-10T18:14:26.899Z,1.70
2023-04-10T18:16:53.695Z,1.50
2023-04-10T18:19:20.557Z,2.00
2023-04-10T18:21:47.294Z,2.05
2023-04-10T18:24:14.380Z,1.58
2023-04-10T18:26:41.029Z,1.67
2023-04-10T18:29:07.990Z,4.20
2023-04-10T18:31:34.715Z,2.38
2023-04-10T18:34:07.929Z,1.85
2023-04-10T18:36:35.616Z,2.05
2023-04-10T18:39:02.538Z,4.35
2023-04-10T18:41:29.214Z,12.35
2023-04-10T18:44:04.319Z,34.42
2023-04-10T18:46:32.953Z,5.78
2023-04-10T18:49:01.321Z,5.57
2023-04-10T18:51:28.398Z,4.15
2023-04-10T18:53:55.907Z,3.22
2023-04-10T18:56:22.789Z,2.50
2023-04-10T18:58:50.322Z,1.67
2023-04-10T19:01:20.758Z,1.33
2023-04-10T19:03:50.842Z,2.47
2023-04-10T19:06:18.525Z,1.25
2023-04-10T19:08:45.364Z,1.33
2023-04-10T19:11:12.296Z,1.40
2023-04-10T19:13:39.141Z,1.95
2023-04-10T19:16:06.345Z,1.33
2023-04-10T19:18:33.202Z,1.63
2023-04-10T19:21:00.093Z,1.40
2023-04-10T19:23:26.773Z,1.60
2023-04-10T19:25:54.736Z,2.25
2023-04-10T19:28:23.838Z,1.70
2023-04-10T19:30:50.727Z,1.83
2023-04-10T19:33:17.490Z,2.08
2023-04-10T19:35:44.361Z,1.58
2023-04-10T19:38:11.277Z,2.75
2023-04-10T19:40:38.066Z,2.63
2023-04-10T19:43:04.838Z,4.15
2023-04-10T19:45:33.089Z,2.47
2023-04-10T19:48:00.426Z,1.83
2023-04-10T19:50:29.598Z,3.83
2023-04-10T19:52:56.305Z,2.50
2023-04-10T19:55:23.098Z,2.47
2023-04-10T19:57:50.172Z,3.00
2023-04-10T20:00:17.294Z,1.70
2023-04-10T20:02:44.192Z,2.10
2023-04-10T20:05:11.259Z,2.83
2023-04-10T20:07:37.966Z,2.00
2023-04-10T20:10:05.208Z,3.28
2023-04-10T20:12:35.300Z,2.55
2023-04-10T20:15:02.691Z,2.03
2023-04-10T20:17:29.716Z,4.90
2023-04-10T20:19:57.089Z,3.25
2023-04-10T20:22:23.871Z,2.95
2023-04-10T20:24:50.630Z,3.60
2023-04-10T20:27:17.609Z,2.53
2023-04-10T20:29:44.338Z,2.17
2023-04-10T20:32:11.069Z,2.42
2023-04-10T20:34:37.835Z,1.65
2023-04-10T20:37:05.624Z,2.20
2023-04-10T20:39:37.752Z,3.25
2023-04-10T20:42:04.751Z,3.28
2023-04-10T20:44:31.468Z,3.03
2023-04-10T20:46:58.185Z,3.17
2023-04-10T20:49:25.297Z,2.95
2023-04-10T20:51:53.191Z,2.80
2023-04-10T20:54:23.202Z,3.63
2023-04-10T20:56:50.188Z,3.25
2023-04-10T20:59:18.157Z,4.38
2023-04-10T21:01:44.977Z,4.18
2023-04-10T21:04:11.842Z,2.63
2023-04-10T21:06:38.680Z,3.67
2023-04-10T21:09:06.079Z,3.30
2023-04-10T21:11:32.811Z,1.85
2023-04-10T21:13:59.530Z,1.73
2023-04-10T21:16:26.246Z,1.90
2023-04-10T21:18:53.786Z,2.03
2023-04-10T21:21:20.788Z,1.58
2023-04-10T21:23:47.494Z,2.90
2023-04-10T21:26:14.201Z,1.85
2023-04-10T21:28:40.914Z,3.03
2023-04-10T21:31:07.751Z,2.35
2023-04-10T21:33:34.459Z,2.13
2023-04-10T21:36:01.312Z,2.25
2023-04-10T21:38:28.216Z,2.30
2023-04-10T21:40:54.948Z,2.22
2023-04-10T21:43:21.820Z,1.73
2023-04-10T21:45:48.640Z,2.38
2023-04-10T21:48:15.537Z,1.90
2023-04-10T21:50:42.349Z,2.35
2023-04-10T21:53:09.073Z,2.42
2023-04-10T21:55:35.837Z,1.65
2023-04-10T21:58:02.556Z,2.38
2023-04-10T22:00:29.320Z,2.60
2023-04-10T22:02:56.265Z,2.30
2023-04-10T22:05:24.506Z,2.22
2023-04-10T22:07:52.205Z,2.17
2023-04-10T22:10:19.209Z,1.83
2023-04-10T22:12:48.609Z,2.13
2023-04-10T22:15:15.751Z,2.25
2023-04-10T22:17:42.522Z,2.40
2023-04-10T22:20:09.882Z,1.52
2023-04-10T22:22:36.956Z,1.80
2023-04-10T22:25:03.904Z,4.55
2023-04-10T22:27:30.632Z,3.60
2023-04-10T22:30:03.472Z,6.43
2023-04-10T22:32:31.181Z,1.58
2023-04-10T22:34:59.501Z,2.78
2023-04-10T22:37:26.882Z,1.90
2023-04-10T22:39:53.597Z,3.75
2023-04-10T22:42:20.385Z,4.85
2023-04-10T22:44:47.116Z,5.00
2023-04-10T22:47:13.775Z,2.40
2023-04-10T22:49:40.823Z,2.38
2023-04-10T22:52:07.486Z,1.60
2023-04-10T22:54:34.157Z,1.92
2023-04-10T22:57:00.869Z,2.95
2023-04-10T22:59:27.597Z,2.60
2023-04-10T23:01:54.333Z,2.22
2023-04-10T23:04:21.149Z,2.28
2023-04-10T23:06:47.819Z,2.30
2023-04-10T23:09:14.518Z,2.40
2023-04-10T23:11:41.192Z,4.25
2023-04-10T23:14:07.880Z,1.80
2023-04-10T23:16:34.836Z,2.17
2023-04-10T23:19:01.687Z,1.40
2023-04-10T23:21:28.393Z,2.95
2023-04-10T23:23:55.128Z,1.55
2023-04-10T23:26:21.787Z,1.75
2023-04-10T23:28:48.565Z,1.52
2023-04-10T23:31:15.862Z,3.22
2023-04-10T23:33:42.644Z,2.65
2023-04-10T23:36:09.530Z,1.90
2023-04-10T23:38:36.226Z,1.80
2023-04-10T23:41:03.199Z,1.98
2023-04-10T23:43:29.979Z,2.10
2023-04-10T23:45:56.615Z,1.38
2023-04-10T23:48:23.336Z,2.22
2023-04-10T23:50:50.094Z,2.45
2023-04-10T23:53:17.233Z,3.17
2023-04-10T23:55:43.957Z,1.50
2023-04-10T23:58:10.602Z,1.42
